Tiempo atmosférico en la estación meteorológica de Forua, Bizkaia (45 m.)

Fecha
DESCASC
Temp. máxima en grados centígrados (hora)
DESCASC
Temp. mínima en grados centígrados (hora)
DESCASC
Temp. media en grados centígrados
DESCASC
Racha de viento máxima en m/sg (hora)
DESCASC
Velocidad máxima media en intervalos de 10 minutos(hora)
DESCASC
Precipitaciones diarias en mm
DESCASC
Precipitaciones de 00:00 a 06:00 en mm
DESCASC
Precipitaciones de 06:00 a 12:00 en mm
DESCASC
Precipitaciones de 12:00 a 18:00 en mm
DESCASC
Precipitaciones de 18:00 a 24:00 en mm
DESCASC
22-10-2017 15.4 (15:40) 11.5 (23:59) 13.4 8.89 (14:40) 4.72 (13:00) 5.2 1.8 1.4 0.2 1.8
21-10-2017 20 (03:40) 14.5 (22:30) 17.3 12.22 (03:40) 7.22 (03:50) 0.8 0 0.8 0 0
20-10-2017 24.2 (14:10) 13.7 (08:40) 19 6.11 (14:20) 3.61 (17:40) 0 0 0 0 0
19-10-2017 21.3 (15:40) 12.3 (00:00) 16.8 5 (13:40) 2.78 (13:50) 1.2 0.8 0.4 0 0
18-10-2017 16.6 (00:00) 13.4 (00:00) 15 6.67 (20:20) 4.17 (20:30) 9.8 0 0.2 5.4 4.2
17-10-2017 -- (--) -- (--) -- -- (--) -- (--) -- 0 -- -- 0
16-10-2017 27.6 (14:00) 16.7 (00:00) 22.2 12.22 (05:00) 7.22 (10:50) 0 0 0 0 0
15-10-2017 30.3 (16:50) 18.9 (00:00) 24.6 9.17 (12:00) 5.83 (12:00) 0 0 0 0 0
14-10-2017 24.4 (13:40) 15.8 (00:00) 20.1 4.72 (15:20) 2.78 (15:20) 0 0 0 0 0
13-10-2017 23.2 (14:50) 11.6 (00:00) 17.4 8.06 (15:30) 5.83 (15:30) 0 0 0 0 0
12-10-2017 22.5 (14:40) 10.1 (00:00) 16.3 6.67 (17:30) 5 (18:20) 0 0 0 0 0
11-10-2017 25.8 (13:40) 10.1 (00:00) 17.9 6.67 (12:30) 3.33 (08:50) 0.2 0.2 0 0 0
10-10-2017 22 (15:40) 8.5 (00:00) 15.3 6.11 (17:00) 4.44 (17:00) 0.2 0 0.2 0 0
09-10-2017 20.5 (14:50) 7.3 (00:00) 13.9 6.67 (15:20) 4.17 (16:10) 0 0 0 0 0
08-10-2017 21.2 (15:50) 6.7 (00:00) 14 5.83 (13:40) 3.33 (17:30) 0 0 0 0 0
07-10-2017 18.5 (15:00) 8.6 (00:00) 13.6 6.94 (15:50) 4.44 (16:30) 0.2 0 0.2 0 0
06-10-2017 18.9 (13:50) 11.6 (00:00) 15.3 5.83 (14:00) 3.33 (14:00) 1.2 0 0 1.2 0
05-10-2017 23.1 (15:40) 17.2 (00:00) 20.2 7.78 (16:20) 4.17 (16:20) 0 0 0 0 0
04-10-2017 22.3 (13:10) 15.3 (00:00) 18.8 7.78 (15:10) 5 (15:00) 0.2 0 0.2 0 0
03-10-2017 23.2 (17:10) 17.2 (00:00) 20.2 5.83 (16:00) 3.89 (16:00) 0.2 0.2 0 0 0
02-10-2017 21.8 (16:20) 17.4 (00:00) 19.6 5.28 (07:30) 2.78 (00:10) 1.4 0.6 0.8 0 0
01-10-2017 18.6 (18:00) 12.7 (00:00) 15.7 5 (15:20) 3.61 (15:10) 1.2 0 0.4 0.6 0.2
30-09-2017 17.7 (14:30) 13.6 (00:00) 15.7 7.5 (07:20) 4.17 (07:30) 6 0 5.4 0.6 0
29-09-2017 26 (15:20) 13.2 (00:00) 19.6 8.33 (16:00) 4.44 (14:20) 0 0 0 0 0
28-09-2017 30.4 (15:30) 11.6 (00:00) 21 6.94 (13:10) 4.17 (13:10) 0 0 0 0 0
27-09-2017 26.8 (14:00) 10.1 (00:00) 18.4 7.5 (15:20) 5.28 (15:10) 0.2 0 0.2 0 0
26-09-2017 21.2 (15:00) 12.7 (00:00) 17 6.67 (15:50) 3.89 (15:50) 1.4 1.4 0 0 0
25-09-2017 20.5 (14:50) 15.3 (00:00) 17.9 9.17 (16:10) 4.72 (16:00) 8.2 0.6 0 6.4 1.2
24-09-2017 24.7 (13:40) 12.4 (00:00) 18.6 7.5 (15:30) 4.44 (15:10) 0 0 0 0 0
23-09-2017 29.6 (16:40) 11.5 (00:00) 20.6 8.61 (13:20) 5.28 (14:10) 0.2 0 0 0.2 0

Gráficas

Temp. máximas Temp. mínimas Temp. medias Precipitaciones Rachas de viento máximas Velocidades máximas media en intervalos de 10 minutos

Datos horarios

Fecha y hora oficial Temperatura (ºC) Velocidad del viento (km/h) Dirección del viento Racha (km/h) Dirección de racha Precipitación (mm) Presión (hPa) Tendencia (hPa) Humedad (%)
2017-10-22 23:00:00 12.2 5 Sudoeste 8 Sudoeste 0 -- -- 100
2017-10-22 22:00:00 12.5 4 Sudoeste 8 Sudoeste 0.2 -- -- 100
2017-10-22 21:00:00 12.4 8 Sudoeste 11 Sudoeste 0.2 -- -- 100
2017-10-22 20:00:00 12.6 5 Sudoeste 9 Sudoeste 0.2 -- -- 98
2017-10-22 19:00:00 13 6 Sudoeste 8 Sudoeste 1.2 -- -- 97
2017-10-22 18:00:00 13.7 2 Sur 9 Este 0.2 -- -- 93
2017-10-22 17:00:00 14.6 7 Este 27 Noroeste 0 -- -- 86
2017-10-22 16:00:00 15.3 7 Noroeste 22 Oeste 0 -- -- 83
2017-10-22 15:00:00 14.2 5 Noroeste 32 Norte 0 -- -- 89
2017-10-22 14:00:00 15.1 8 Oeste 27 Oeste 0 -- -- 85
2017-10-22 13:00:00 14.4 17 Noroeste 28 Noroeste 0 -- -- 85
2017-10-22 12:00:00 13.5 10 Oeste 23 Noroeste 0 -- -- 93
2017-10-22 11:00:00 12.9 6 Sudoeste 18 Sudoeste 0 -- -- 98
2017-10-22 10:00:00 12 8 Sudoeste 14 Sudoeste 0.6 -- -- 98
2017-10-22 09:00:00 11.9 4 Sur 19 Sudoeste 0.2 -- -- 97
2017-10-22 08:00:00 11.9 12 Sudoeste 17 Sudoeste 0.6 -- -- 97
2017-10-22 07:00:00 12 5 Sudoeste 24 Oeste 0 -- -- 96
2017-10-22 06:00:00 12.3 9 Noroeste 19 Oeste 0.6 -- -- 94
2017-10-22 05:00:00 12.7 4 Nordeste 24 Noroeste 0.8 -- -- 93
2017-10-22 04:00:00 12.6 6 Sudoeste 19 Norte 0 -- -- 92
2017-10-22 03:00:00 13.6 6 Norte 21 Noroeste 0 -- -- 84
2017-10-22 02:00:00 13.3 6 Noroeste 18 Noroeste 0 -- -- 86
2017-10-22 01:00:00 13.4 9 Oeste 23 Norte 0.4 -- -- 86
2017-10-22 00:00:00 15.1 5 Noroeste 20 Noroeste 0 -- -- 72
2017-10-21 23:00:00 14.6 7 Oeste 16 Noroeste 0 -- -- 75
2017-10-21 22:00:00 14.8 6 Oeste 17 Oeste 0 -- -- 75
2017-10-21 21:00:00 15.6 6 Noroeste 17 Nordeste 0 -- -- 72
2017-10-21 20:00:00 15.9 5 Noroeste 15 Noroeste 0 -- -- 71
2017-10-21 19:00:00 16.3 2 Norte 29 Norte 0 -- -- 67
2017-10-21 18:00:00 17.1 21 Norte 34 Norte 0 -- -- 67
2017-10-21 17:00:00 17.4 8 Nordeste 34 Nordeste 0 -- -- 66
2017-10-21 16:00:00 17.4 13 Nordeste 37 Nordeste 0 -- -- 68
2017-10-21 15:00:00 18.1 15 Nordeste 26 Nordeste 0 -- -- 72
2017-10-21 14:00:00 18.4 5 Norte 12 Oeste 0 -- -- 66
2017-10-21 13:00:00 17.7 7 Oeste 13 Sudoeste 0 -- -- 82
2017-10-21 12:00:00 15.9 7 Oeste 13 Oeste 0 -- -- 90
2017-10-21 11:00:00 14.9 7 Sudoeste 14 Sudoeste 0 -- -- 94
2017-10-21 10:00:00 14.9 8 Oeste 17 Nordeste 0 -- -- 94
2017-10-21 09:00:00 15.1 6 Oeste 24 Noroeste 0.6 -- -- 94
2017-10-21 08:00:00 15.6 7 Oeste 15 Sudoeste 0.2 -- -- 93
2017-10-21 07:00:00 16.3 8 Norte 29 Noroeste 0 -- -- 86
2017-10-21 06:00:00 17.7 15 Norte 28 Noroeste 0 -- -- 82
2017-10-21 05:00:00 17.9 10 Norte 36 Nordeste 0 -- -- 87
2017-10-21 04:00:00 19.3 22 Nordeste 44 Norte 0 -- -- 84
2017-10-21 03:00:00 19.6 6 Oeste 14 Sudoeste 0 -- -- 72
2017-10-21 02:00:00 19.7 5 Sudoeste 22 Oeste 0 -- -- 70
2017-10-21 01:00:00 19.3 6 Sur 18 Sudoeste 0 -- -- 69
2017-10-21 00:00:00 18.2 11 Sudoeste 18 Oeste 0 -- -- 72
2017-10-20 23:00:00 17.1 9 Sudoeste 15 Sudoeste 0 -- -- 76
2017-10-20 22:00:00 15.6 12 Oeste 15 Oeste 0 -- -- 93
2017-10-20 21:00:00 16.1 11 Sudoeste 15 Sudoeste 0 -- -- 93
2017-10-20 20:00:00 17.7 4 Sudoeste 6 Sudoeste 0 -- -- 86
2017-10-20 19:00:00 18.9 4 Norte 14 Nordeste 0 -- -- 80
2017-10-20 18:00:00 21.4 12 Norte 17 Norte 0 -- -- 74
2017-10-20 17:00:00 22.4 11 Norte 19 Norte 0 -- -- 71
2017-10-20 16:00:00 22.9 10 Nordeste 19 Norte 0 -- -- 68
2017-10-20 15:00:00 23.3 10 Nordeste 22 Oeste 0 -- -- 66
2017-10-20 14:00:00 24 6 Sudoeste 17 Oeste 0 -- -- 60
2017-10-20 13:00:00 21.6 5 Sur 10 Sudoeste 0 -- -- 66
2017-10-20 12:00:00 18.9 0 Calma 4 Sur 0 -- -- 73
2017-10-20 11:00:00 16 4 Sudoeste 7 Sudoeste 0 -- -- 86
2017-10-20 10:00:00 14.4 3 Sur 9 Oeste 0 -- -- 92
2017-10-20 09:00:00 13.9 4 Sudoeste 12 Sudoeste 0 -- -- 89
2017-10-20 08:00:00 14 10 Sudoeste 13 Sudoeste 0 -- -- 91
2017-10-20 07:00:00 14.3 5 Sudoeste 7 Sur 0 -- -- 88
2017-10-20 06:00:00 14.5 7 Sudoeste 12 Sudoeste 0 -- -- 86
2017-10-20 05:00:00 14.6 9 Sudoeste 13 Sudoeste 0 -- -- 86
2017-10-20 04:00:00 14.8 3 Sudoeste 10 Sudoeste 0 -- -- 83
2017-10-20 03:00:00 14.9 5 Oeste 12 Sudoeste 0 -- -- 84
2017-10-20 02:00:00 14.6 9 Sudoeste 12 Sudoeste 0 -- -- 86
2017-10-20 01:00:00 14.4 3 Sur 12 Sur 0 -- -- 88
2017-10-20 00:00:00 14 5 Sur 11 Sudoeste 0 -- -- 91
2017-10-19 23:00:00 14 6 Sudoeste 10 Oeste 0 -- -- 87
2017-10-19 22:00:00 13.3 9 Sudoeste 11 Oeste 0 -- -- 95
2017-10-19 21:00:00 14 6 Sudoeste 9 Oeste 0 -- -- 93
2017-10-19 20:00:00 15.4 5 Sudoeste 7 Sudoeste 0 -- -- 90
2017-10-19 19:00:00 17.3 3 Norte 8 Norte 0 -- -- 82
2017-10-19 18:00:00 18.7 4 Nordeste 8 Nordeste 0 -- -- 79
2017-10-19 17:00:00 19.8 6 Este 11 Este 0 -- -- 68
2017-10-19 16:00:00 21 4 Oeste 11 Sudoeste 0 -- -- 61
2017-10-19 15:00:00 20.2 4 Noroeste 15 Oeste 0 -- -- 64
2017-10-19 14:00:00 19.7 7 Oeste 18 Sudoeste 0 -- -- 64
2017-10-19 13:00:00 18.8 6 Sudoeste 16 Oeste 0 -- -- 69
2017-10-19 12:00:00 17.6 8 Sudoeste 15 Sudoeste 0 -- -- 80
2017-10-19 11:00:00 15.8 7 Sudoeste 13 Sudoeste 0 -- -- 89
2017-10-19 10:00:00 14.1 7 Sudoeste 12 Sudoeste 0 -- -- 100
2017-10-19 09:00:00 12.3 4 Sudoeste 9 Sudoeste 0.4 -- -- 100
2017-10-19 08:00:00 12.4 6 Sudoeste 9 Oeste 0 -- -- 100
2017-10-19 07:00:00 12.5 4 Sudoeste 8 Sur 0 -- -- 100
2017-10-19 06:00:00 12.6 2 Sur 7 Sudoeste 0 -- -- 100
2017-10-19 05:00:00 12.8 0 Calma 7 Sur 0 -- -- 100
2017-10-19 04:00:00 12.9 7 Oeste 13 Oeste 0 -- -- 100
2017-10-19 03:00:00 13.1 4 Sur 10 Sudoeste 0 -- -- 100
2017-10-19 02:00:00 13.2 9 Sudoeste 13 Sudoeste 0.2 -- -- 100
2017-10-19 01:00:00 13.2 6 Sudoeste 11 Sudoeste 0.6 -- -- 100
2017-10-19 00:00:00 13.4 5 Sudoeste 14 Oeste 1.8 -- -- 99
2017-10-18 23:00:00 13.8 6 Oeste 16 Oeste 1.4 -- -- 97
2017-10-18 22:00:00 14.1 9 Noroeste 18 Oeste 0.2 -- -- 98
2017-10-18 21:00:00 14.2 6 Sudoeste 24 Noroeste 0.6 -- -- 96
2017-10-18 20:00:00 14.4 9 Noroeste 23 Noroeste 0 -- -- 96
2017-10-18 19:00:00 14.9 4 Noroeste 11 Sur 0.2 -- -- 99
2017-10-18 18:00:00 15.2 5 Sudoeste 8 Sur 0 -- -- 98
2017-10-18 17:00:00 15.3 8 Sudeste 12 Sudeste 0.2 -- -- 97
2017-10-18 16:00:00 15.1 4 Oeste 10 Sudoeste 0 -- -- 99
2017-10-18 15:00:00 14.5 7 Sudoeste 15 Sudoeste 1.6 -- -- 98
2017-10-18 14:00:00 15.4 7 Sudoeste 11 Sudoeste 3 -- -- 94
2017-10-18 13:00:00 16.4 4 Este 7 Sudeste 0.6 -- -- 96
2017-10-18 12:00:00 16.5 2 Sudoeste 4 Sudoeste 0.2 -- -- 92
2017-10-18 11:00:00 16 3 Este 12 Sudoeste 0 -- -- 92
2017-10-18 10:00:00 14.8 2 Noroeste 7 Sur 0 -- -- 95
2017-10-18 09:00:00 13.9 4 Nordeste 9 Sudoeste 0 -- -- 99
2017-10-18 08:00:00 14 6 Sudoeste 12 Sudoeste 0 -- -- 100
2017-10-18 07:00:00 14 3 Oeste 6 Oeste 0 -- -- 100
2017-10-18 06:00:00 14.4 3 Oeste 8 Oeste 0 -- -- 100
2017-10-18 05:00:00 15 3 Sudoeste 6 Sudoeste 0 -- -- 99
2017-10-18 04:00:00 15.7 3 Sur 5 Sur 0 -- -- 99
2017-10-18 03:00:00 16 0 Calma 8 Sur 0 -- -- 99
2017-10-18 02:00:00 16.1 5 Sur 11 Oeste 0 -- -- 97
2017-10-18 01:00:00 16.5 4 Sur 8 Norte 0 -- -- 98
2017-10-18 00:00:00 16.6 4 Norte 7 Norte 0 -- -- 96
2017-10-17 23:00:00 17.2 2 Sur 10 Sudoeste 0 -- -- 95
2017-10-17 22:00:00 17.5 5 Sudoeste 10 Sudoeste 0 -- -- 94
2017-10-17 21:00:00 18 7 Sudoeste 12 Sudoeste 0 -- -- 93
2017-10-17 20:00:00 19 5 Sudoeste 18 Oeste 0 -- -- 87
2017-10-17 19:00:00 21 5 Sur 12 Sur 0 -- -- 78
2017-10-17 18:00:00 22.6 4 Nordeste 8 Nordeste 0 -- -- 69
2017-10-17 17:00:00 23.8 5 Noroeste 9 Oeste 0 -- -- 59
2017-10-17 16:00:00 24.5 5 Sudoeste 26 Sudoeste 0 -- -- 54
2017-10-17 15:00:00 25.2 18 Sudoeste -- -- -- -- -- 47
2017-10-17 14:00:00 -- -- -- -- -- -- -- -- --
2017-10-17 13:00:00 -- -- -- -- -- -- -- -- --
2017-10-17 12:00:00 -- -- -- -- -- -- -- -- --
2017-10-17 11:00:00 -- -- -- -- -- -- -- -- --
2017-10-17 10:00:00 20.3 11 Sudoeste 24 Oeste 0 -- -- 68
2017-10-17 09:00:00 18.7 11 Sudoeste 22 Sudoeste 0 -- -- 71
2017-10-17 08:00:00 17.8 7 Sur 18 Sudoeste 0 -- -- 74
2017-10-17 07:00:00 14.4 11 Sudoeste 18 Sudoeste 0 -- -- 99
2017-10-17 06:00:00 12.8 5 Sudoeste 12 Sudoeste 0 -- -- 100
2017-10-17 05:00:00 12.9 7 Sudoeste 12 Oeste 0 -- -- 99
2017-10-17 04:00:00 13.6 5 Sudoeste 10 Oeste 0 -- -- 99
2017-10-17 03:00:00 14.1 3 Oeste 8 Norte 0 -- -- 98
2017-10-17 02:00:00 14.6 4 Nordeste 7 Nordeste 0 -- -- 98
2017-10-17 01:00:00 15.4 6 Oeste 8 Oeste 0 -- -- 95
2017-10-17 00:00:00 16.7 2 Sudoeste 5 Sur 0 -- -- 94
2017-10-16 23:00:00 17.3 3 Oeste 4 Oeste 0 -- -- 93
2017-10-16 22:00:00 17.8 3 Nordeste 5 Nordeste 0 -- -- 92
2017-10-16 21:00:00 18.1 2 Este 5 Sudeste 0 -- -- 90
2017-10-16 20:00:00 18.7 4 Este 12 Este 0 -- -- 89
2017-10-16 19:00:00 19.5 5 Nordeste 18 Nordeste 0 -- -- 82
2017-10-16 18:00:00 20.8 10 Nordeste 21 Nordeste 0 -- -- 75
2017-10-16 17:00:00 22.7 10 Nordeste 23 Nordeste 0 -- -- 67
2017-10-16 16:00:00 23.6 10 Nordeste 28 Nordeste 0 -- -- 69
2017-10-16 15:00:00 24.3 11 Nordeste 33 Norte 0 -- -- 69
2017-10-16 14:00:00 27.6 15 Oeste 37 Oeste 0 -- -- 50
2017-10-16 13:00:00 26.6 21 Oeste 40 Oeste 0 -- -- 51
2017-10-16 12:00:00 25.8 20 Oeste 38 Sudoeste 0 -- -- 54
2017-10-16 11:00:00 24.2 25 Oeste 40 Oeste 0 -- -- 55
2017-10-16 10:00:00 23.6 15 Sudoeste 35 Oeste 0 -- -- 56
2017-10-16 09:00:00 22.6 21 Oeste 35 Oeste 0 -- -- 57
2017-10-16 08:00:00 23.1 22 Oeste 36 Oeste 0 -- -- 55
2017-10-16 07:00:00 23.4 21 Oeste 33 Oeste 0 -- -- 55
2017-10-16 06:00:00 23 19 Oeste 32 Oeste 0 -- -- 59
2017-10-16 05:00:00 23.4 23 Oeste 44 Oeste 0 -- -- 59
2017-10-16 04:00:00 23.7 21 Oeste 32 Oeste 0 -- -- 59
2017-10-16 03:00:00 23.2 16 Oeste 31 Sudoeste 0 -- -- 63
2017-10-16 02:00:00 23.7 16 Sudoeste 37 Sudoeste 0 -- -- 61
2017-10-16 01:00:00 23.5 15 Oeste 24 Oeste 0 -- -- 60
2017-10-16 00:00:00 22.9 14 Oeste 26 Oeste 0 -- -- 61
2017-10-15 23:00:00 23 12 Sudoeste 24 Oeste 0 -- -- 58
2017-10-15 22:00:00 22.6 11 Sudoeste 22 Oeste 0 -- -- 61
2017-10-15 21:00:00 22.8 10 Sudoeste 14 Sudoeste 0 -- -- 63
2017-10-15 20:00:00 23.8 9 Sudoeste 11 Sudoeste 0 -- -- 64
2017-10-15 19:00:00 26.3 6 Oeste 12 Oeste 0 -- -- 53
2017-10-15 18:00:00 29.2 7 Sudoeste 19 Sudoeste 0 -- -- 49
2017-10-15 17:00:00 30.2 10 Oeste 21 Oeste 0 -- -- 47
2017-10-15 16:00:00 29.9 13 Oeste 28 Oeste 0 -- -- 46
2017-10-15 15:00:00 29.2 18 Oeste 28 Oeste 0 -- -- 48
2017-10-15 14:00:00 27.8 13 Oeste 29 Oeste 0 -- -- 53
2017-10-15 13:00:00 26.9 18 Oeste 31 Oeste 0 -- -- 55
2017-10-15 12:00:00 25.2 21 Oeste 33 Oeste 0 -- -- 60
2017-10-15 11:00:00 23.4 13 Sudoeste 24 Sudoeste 0 -- -- 66
2017-10-15 10:00:00 20.9 8 Sur 18 Sudoeste 0 -- -- 75
2017-10-15 09:00:00 19.2 8 Sur 18 Sudoeste 0 -- -- 76
2017-10-15 08:00:00 18.9 7 Sur 14 Sudoeste 0 -- -- 77
2017-10-15 07:00:00 19.9 9 Sudoeste 22 Sudoeste 0 -- -- 74
2017-10-15 06:00:00 19.8 7 Sudoeste 16 Sudoeste 0 -- -- 75
2017-10-15 05:00:00 19.8 7 Sur 12 Sudoeste 0 -- -- 75
2017-10-15 04:00:00 20 4 Sur 12 Sudoeste 0 -- -- 76
2017-10-15 03:00:00 20.1 5 Sudoeste 12 Sudoeste 0 -- -- 76
2017-10-15 02:00:00 20.8 5 Sudoeste 10 Sudoeste 0 -- -- 73
2017-10-15 01:00:00 20.6 5 Sur 9 Sudoeste 0 -- -- 73
2017-10-15 00:00:00 18.9 3 Sur 10 Sur 0 -- -- 80
2017-10-14 23:00:00 18.3 5 Sur 11 Sudoeste 0 -- -- 86
2017-10-14 22:00:00 18 7 Sudoeste 11 Sudoeste 0 -- -- 96
2017-10-14 21:00:00 18.7 4 Sudoeste 8 Sudoeste 0 -- -- 94
2017-10-14 20:00:00 20 5 Sudoeste 7 Sudoeste 0 -- -- 90
2017-10-14 19:00:00 21 5 Norte 10 Nordeste 0 -- -- 86
2017-10-14 18:00:00 23.4 5 Nordeste 14 Nordeste 0 -- -- 80
2017-10-14 17:00:00 23.7 7 Nordeste 15 Nordeste 0 -- -- 78
2017-10-14 16:00:00 23.9 8 Nordeste 17 Nordeste 0 -- -- 78
2017-10-14 15:00:00 23.7 9 Nordeste 17 Nordeste 0 -- -- 78
2017-10-14 14:00:00 24.4 8 Nordeste 12 Norte 0 -- -- 76
2017-10-14 13:00:00 23.4 4 Nordeste 6 Este 0 -- -- 76
2017-10-14 12:00:00 21.1 4 Este 6 Este 0 -- -- 81
2017-10-14 11:00:00 19.3 0 Calma 4 Sur 0 -- -- 87
2017-10-14 10:00:00 17.4 0 Calma 6 Oeste 0 -- -- 94
2017-10-14 09:00:00 16.2 3 Noroeste 4 Norte 0 -- -- 95
2017-10-14 08:00:00 16.4 0 Calma 8 Sudeste 0 -- -- 94
2017-10-14 07:00:00 16.4 2 Sur 5 Sudeste 0 -- -- 96
2017-10-14 06:00:00 16.4 2 Sudoeste 3 Sudoeste 0 -- -- 97
2017-10-14 05:00:00 16.3 0 Calma 5 Oeste 0 -- -- 98
2017-10-14 04:00:00 16.2 4 Oeste 6 Oeste 0 -- -- 98
2017-10-14 03:00:00 15.9 0 Calma 4 Sudeste 0 -- -- 99
2017-10-14 02:00:00 15.9 0 Calma 3 Oeste 0 -- -- 98
2017-10-14 01:00:00 16.2 0 Calma 3 Sudoeste 0 -- -- 95
2017-10-14 00:00:00 16.4 0 Calma 4 Sudoeste 0 -- -- 96
2017-10-13 23:00:00 16.5 0 Calma 6 Sudoeste 0 -- -- 95
2017-10-13 22:00:00 17.3 0 Calma 3 Sudoeste 0 -- -- 95
2017-10-13 21:00:00 17.4 2 Norte 6 Oeste 0 -- -- 93
2017-10-13 20:00:00 18 4 Sudoeste 8 Sudoeste 0 -- -- 90
2017-10-13 19:00:00 19.6 4 Norte 10 Norte 0 -- -- 84
2017-10-13 18:00:00 21.7 5 Nordeste 15 Este 0 -- -- 78
2017-10-13 17:00:00 22.6 6 Nordeste 24 Nordeste 0 -- -- 76
2017-10-13 16:00:00 22.4 14 Nordeste 29 Norte 0 -- -- 78
2017-10-13 15:00:00 23.2 14 Nordeste 23 Nordeste 0 -- -- 77
2017-10-13 14:00:00 22.8 10 Nordeste 16 Nordeste 0 -- -- 78
2017-10-13 13:00:00 22.1 7 Nordeste 17 Nordeste 0 -- -- 77
2017-10-13 12:00:00 21.5 2 Norte 6 Sudoeste 0 -- -- 78
2017-10-13 11:00:00 18 5 Sudoeste 11 Sudoeste 0 -- -- 85
2017-10-13 10:00:00 14.3 7 Sudoeste 12 Sudoeste 0 -- -- 100
2017-10-13 09:00:00 12.3 8 Sudoeste 12 Sudoeste 0 -- -- 100
2017-10-13 08:00:00 12.2 6 Sudoeste 12 Sudoeste 0 -- -- 100
2017-10-13 07:00:00 12 8 Sudoeste 11 Oeste 0 -- -- 100
2017-10-13 06:00:00 11.7 9 Sudoeste 12 Oeste 0 -- -- 100
2017-10-13 05:00:00 11.7 9 Sudoeste 12 Sudoeste 0 -- -- 100
2017-10-13 04:00:00 11.7 6 Sudoeste 11 Sudoeste 0 -- -- 100
2017-10-13 03:00:00 12 5 Sudoeste 10 Sudoeste 0 -- -- 100
2017-10-13 02:00:00 12.4 7 Sudoeste 10 Sudoeste 0 -- -- 100
2017-10-13 01:00:00 12.9 5 Sudoeste 12 Sudoeste 0 -- -- 100
2017-10-13 00:00:00 13.1 8 Sudoeste 12 Sudoeste 0 -- -- 99
2017-10-12 23:00:00 14 6 Sudoeste 8 Sudoeste 0 -- -- 98
2017-10-12 22:00:00 14.5 6 Sudoeste 8 Sudoeste 0 -- -- 97
2017-10-12 21:00:00 15.8 3 Noroeste 9 Nordeste 0 -- -- 94
2017-10-12 20:00:00 16.9 6 Nordeste 14 Norte 0 -- -- 90
2017-10-12 19:00:00 18.2 11 Norte 24 Norte 0 -- -- 86
2017-10-12 18:00:00 20.1 16 Norte 24 Norte 0 -- -- 81
2017-10-12 17:00:00 21.8 13 Nordeste 23 Nordeste 0 -- -- 77
2017-10-12 16:00:00 22.5 12 Nordeste 19 Nordeste 0 -- -- 75
2017-10-12 15:00:00 22.3 12 Nordeste 20 Nordeste 0 -- -- 74
2017-10-12 14:00:00 22.2 9 Nordeste 15 Norte 0 -- -- 75
2017-10-12 13:00:00 20.7 5 Norte 9 Norte 0 -- -- 80
2017-10-12 12:00:00 18.2 2 Oeste 9 Sudoeste 0 -- -- 86
2017-10-12 11:00:00 14.8 3 Sudoeste 7 Sur 0 -- -- 100
2017-10-12 10:00:00 11.9 4 Sudoeste 7 Sudoeste 0 -- -- 100
2017-10-12 09:00:00 10.2 3 Sur 10 Sudoeste 0 -- -- 100
2017-10-12 08:00:00 10.1 4 Sudoeste 9 Sudoeste -- -- -- 100
2017-10-12 07:00:00 10.3 7 Sudoeste 10 Sudoeste 0 -- -- 100
2017-10-12 06:00:00 10.9 6 Sudoeste 8 Sudoeste 0 -- -- 100
2017-10-12 05:00:00 11 6 Sudoeste 10 Sudoeste 0 -- -- 100
2017-10-12 04:00:00 11.4 6 Oeste 8 Sudoeste 0 -- -- 100
2017-10-12 03:00:00 12 4 Sudoeste 8 Sudoeste 0 -- -- 100
2017-10-12 02:00:00 12.6 5 Sudoeste 10 Sudoeste 0 -- -- 100
2017-10-12 01:00:00 13.2 5 Sudoeste 8 Sudoeste 0 -- -- 99
2017-10-12 00:00:00 13.8 5 Sudoeste 9 Oeste 0 -- -- 99
2017-10-11 23:00:00 14.4 3 Sudoeste 7 Sudoeste 0 -- -- 97
2017-10-11 22:00:00 15.3 6 Oeste 9 Oeste 0 -- -- 95
2017-10-11 21:00:00 16.3 6 Sudoeste 8 Oeste 0 -- -- 90
2017-10-11 20:00:00 17.6 2 Nordeste 17 Nordeste 0 -- -- 86
2017-10-11 19:00:00 18.9 7 Norte 13 Nordeste 0 -- -- 81
2017-10-11 18:00:00 21.2 7 Nordeste 16 Nordeste 0 -- -- 74
2017-10-11 17:00:00 22.4 10 Nordeste 22 Nordeste 0 -- -- 67
2017-10-11 16:00:00 23.4 10 Nordeste 21 Nordeste 0 -- -- 54
2017-10-11 15:00:00 24.1 9 Nordeste 21 Norte 0 -- -- 54
2017-10-11 14:00:00 25.6 11 Noroeste 21 Oeste 0 -- -- 46
2017-10-11 13:00:00 25.2 6 Sudoeste 24 Sudoeste 0 -- -- 48
2017-10-11 12:00:00 22.8 6 Sur 18 Sudoeste 0 -- -- 58
2017-10-11 11:00:00 18.4 6 Sudoeste 12 Sudoeste 0 -- -- 78
2017-10-11 10:00:00 13.2 6 Sudoeste 15 Sudoeste 0 -- -- 95
2017-10-11 09:00:00 10.7 12 Sudoeste 14 Sudoeste 0 -- -- 100
2017-10-11 08:00:00 10.4 12 Oeste 14 Sudoeste 0 -- -- 100
2017-10-11 07:00:00 10.3 7 Sudoeste 11 Sudoeste 0 -- -- 100
2017-10-11 06:00:00 10.1 7 Sudoeste 12 Sudoeste 0.2 -- -- 100
2017-10-11 05:00:00 10.4 8 Sudoeste 12 Sudoeste 0 -- -- 100
2017-10-11 04:00:00 10.6 8 Sudoeste 12 Sudoeste 0 -- -- 100
2017-10-11 03:00:00 11.1 8 Sudoeste 12 Sudoeste 0 -- -- 100
2017-10-11 02:00:00 11.5 5 Sudoeste 10 Sudoeste 0 -- -- 100
2017-10-11 01:00:00 11.5 5 Sudoeste 10 Sudoeste 0 -- -- 100
2017-10-11 00:00:00 12.1 6 Oeste 8 Sudoeste 0 -- -- 99
2017-10-10 23:00:00 13.2 3 Sudoeste 6 Sudoeste 0 -- -- 99
2017-10-10 22:00:00 14.1 4 Sudoeste 8 Oeste 0 -- -- 98
2017-10-10 21:00:00 15.2 3 Sudoeste 7 Nordeste 0 -- -- 94
2017-10-10 20:00:00 15.9 6 Norte 14 Nordeste 0 -- -- 92
2017-10-10 19:00:00 17.5 8 Norte 19 Nordeste 0 -- -- 88
2017-10-10 18:00:00 19.5 9 Nordeste 22 Nordeste 0 -- -- 81
2017-10-10 17:00:00 21.5 16 Norte 22 Norte 0 -- -- 75
2017-10-10 16:00:00 21.9 10 Nordeste 18 Norte 0 -- -- 76
2017-10-10 15:00:00 21.9 9 Norte 16 Norte 0 -- -- 74
2017-10-10 14:00:00 21.2 7 Nordeste 15 Nordeste 0 -- -- 76
2017-10-10 13:00:00 20.3 3 Nordeste 10 Este 0 -- -- 81
2017-10-10 12:00:00 18.6 0 Calma 9 Sudoeste 0 -- -- 85
2017-10-10 11:00:00 15 5 Sudoeste 10 Oeste 0 -- -- 92
2017-10-10 10:00:00 11.9 4 Sudoeste 12 Sudoeste 0.2 -- -- 100
2017-10-10 09:00:00 9.2 6 Sudoeste 10 Sudoeste 0 -- -- 100
2017-10-10 08:00:00 8.5 4 Sudoeste 10 Sudoeste 0 -- -- 100
2017-10-10 07:00:00 8.7 7 Sudoeste 11 Sudoeste 0 -- -- 100
2017-10-10 06:00:00 8.7 6 Sudoeste 13 Sudoeste 0 -- -- 100
2017-10-10 05:00:00 9 8 Sudoeste 12 Sudoeste 0 -- -- 100
2017-10-10 04:00:00 9.2 5 Sudoeste 11 Sudoeste 0 -- -- 100
2017-10-10 03:00:00 9.3 8 Sudoeste 12 Sudoeste 0 -- -- 100
2017-10-10 02:00:00 10.1 5 Sudoeste 10 Sudoeste 0 -- -- 100
2017-10-10 01:00:00 10.3 5 Sudoeste 9 Sudoeste 0 -- -- 99
2017-10-10 00:00:00 10.9 7 Sudoeste 8 Sudoeste 0 -- -- 98
2017-10-09 23:00:00 11.6 6 Sudoeste 8 Sudoeste 0 -- -- 97
2017-10-09 22:00:00 12.8 6 Sudoeste 8 Sudoeste 0 -- -- 93
2017-10-09 21:00:00 14.6 0 Calma 9 Nordeste 0 -- -- 87
2017-10-09 20:00:00 15.6 4 Nordeste 13 Este 0 -- -- 81
2017-10-09 19:00:00 17.1 8 Este 17 Este 0 -- -- 75
2017-10-09 18:00:00 18.6 12 Este 21 Este 0 -- -- 73
2017-10-09 17:00:00 19.6 11 Este 24 Este 0 -- -- 70
2017-10-09 16:00:00 19.8 14 Este 24 Este 0 -- -- 70
2017-10-09 15:00:00 20.5 12 Este 19 Este 0 -- -- 68
2017-10-09 14:00:00 20.1 10 Este 20 Este 0 -- -- 70
2017-10-09 13:00:00 19.3 11 Este 20 Sudeste 0 -- -- 73
2017-10-09 12:00:00 17.6 2 Norte 4 Norte 0 -- -- 78
2017-10-09 11:00:00 14.5 3 Oeste 6 Oeste 0 -- -- 86
2017-10-09 10:00:00 11 5 Sudoeste 12 Sudoeste 0 -- -- 99
2017-10-09 09:00:00 8 8 Sudoeste 12 Sudoeste 0 -- -- 100
2017-10-09 08:00:00 7.6 6 Sudoeste 10 Sudoeste 0 -- -- 100
2017-10-09 07:00:00 7.6 7 Sudoeste 10 Sudoeste 0 -- -- 100
2017-10-09 06:00:00 7.7 6 Sudoeste 10 Sudoeste 0 -- -- 100
2017-10-09 05:00:00 7.9 6 Sudoeste 10 Sudoeste 0 -- -- 100
2017-10-09 04:00:00 8 6 Sudoeste 9 Sudoeste 0 -- -- 100
2017-10-09 03:00:00 8.3 5 Sudoeste 10 Sudoeste 0 -- -- 99
2017-10-09 02:00:00 8.6 6 Sudoeste 9 Sudoeste 0 -- -- 99
2017-10-09 01:00:00 9.1 5 Sudoeste 9 Sudoeste 0 -- -- 98
2017-10-09 00:00:00 9.8 6 Sudoeste 9 Sudoeste 0 -- -- 98
2017-10-08 23:00:00 10.7 5 Sudoeste 8 Sudoeste 0 -- -- 96
2017-10-08 22:00:00 11.7 5 Oeste 6 Oeste 0 -- -- 93
2017-10-08 21:00:00 13.6 3 Norte 13 Nordeste 0 -- -- 88
2017-10-08 20:00:00 15 6 Nordeste 16 Nordeste 0 -- -- 78
2017-10-08 19:00:00 16.5 8 Nordeste 16 Este 0 -- -- 75
2017-10-08 18:00:00 18.4 9 Este 20 Este 0 -- -- 68
2017-10-08 17:00:00 19.3 11 Este 19 Este 0 -- -- 65
2017-10-08 16:00:00 21.1 9 Nordeste 19 Norte 0 -- -- 58
2017-10-08 15:00:00 20.8 8 Nordeste 16 Este 0 -- -- 58
2017-10-08 14:00:00 20.1 10 Norte 21 Norte 0 -- -- 65
2017-10-08 13:00:00 19.2 7 Norte 11 Norte 0 -- -- 67
2017-10-08 12:00:00 16.8 3 Nordeste 5 Nordeste 0 -- -- 85
2017-10-08 11:00:00 13.9 4 Sur 9 Sudoeste 0 -- -- 89
2017-10-08 10:00:00 10.1 6 Sudoeste 12 Sudoeste 0 -- -- 100
2017-10-08 09:00:00 7.7 4 Sudoeste 8 Oeste 0 -- -- 100
2017-10-08 08:00:00 6.9 5 Sudoeste 10 Sudoeste 0 -- -- 100
2017-10-08 07:00:00 7 8 Sudoeste 11 Sudoeste 0 -- -- 100
2017-10-08 06:00:00 7.2 7 Sudoeste 10 Sudoeste 0 -- -- 100
2017-10-08 05:00:00 7.2 6 Sudoeste 10 Sudoeste 0 -- -- 100
2017-10-08 04:00:00 7.4 7 Sudoeste 10 Sudoeste 0 -- -- 100
2017-10-08 03:00:00 7.6 8 Sudoeste 10 Sudoeste 0 -- -- 100
2017-10-08 02:00:00 8.1 5 Sudoeste 9 Sudoeste 0 -- -- 99
2017-10-08 01:00:00 8.3 6 Sudoeste 9 Sudoeste 0 -- -- 98
2017-10-08 00:00:00 9 5 Sudoeste 8 Oeste 0 -- -- 97
2017-10-07 23:00:00 9.7 6 Sudoeste 10 Sudoeste 0 -- -- 95
2017-10-07 22:00:00 10.9 4 Sudoeste 8 Sudoeste 0 -- -- 92
2017-10-07 21:00:00 12.6 0 Calma 8 Nordeste 0 -- -- 83
2017-10-07 20:00:00 13.9 5 Nordeste 12 Este 0 -- -- 75
2017-10-07 19:00:00 15.4 6 Este 19 Este 0 -- -- 68
2017-10-07 18:00:00 16.6 13 Este 22 Este 0 -- -- 65
2017-10-07 17:00:00 17.4 13 Este 24 Este 0 -- -- 64
2017-10-07 16:00:00 17.9 15 Este 25 Este 0 -- -- 66
2017-10-07 15:00:00 18.5 10 Este 21 Este 0 -- -- 66
2017-10-07 14:00:00 17.8 11 Este 19 Sudeste 0 -- -- 66
2017-10-07 13:00:00 17.5 10 Este 17 Este 0 -- -- 65
2017-10-07 12:00:00 16.6 3 Nordeste 8 Sudoeste 0 -- -- 79
2017-10-07 11:00:00 14.1 4 Sudoeste 8 Sudoeste 0 -- -- 91
2017-10-07 10:00:00 11.3 5 Sudoeste 12 Sudoeste 0.2 -- -- 100
2017-10-07 09:00:00 9.2 4 Sudoeste 9 Sudoeste 0 -- -- 100
2017-10-07 08:00:00 8.6 6 Sudoeste 9 Sudoeste 0 -- -- 100
2017-10-07 07:00:00 9.1 5 Sudoeste 9 Sudoeste 0 -- -- 100
2017-10-07 06:00:00 9.2 5 Sudoeste 8 Sudoeste 0 -- -- 100
2017-10-07 05:00:00 9.3 5 Oeste 8 Sudoeste 0 -- -- 100
2017-10-07 04:00:00 9.7 6 Sudoeste 8 Sudoeste 0 -- -- 100
2017-10-07 03:00:00 9.7 5 Sudoeste 9 Sudoeste 0 -- -- 100
2017-10-07 02:00:00 10.3 4 Sudoeste 8 Sudoeste 0 -- -- 100
2017-10-07 01:00:00 10.8 4 Sudoeste 7 Sudoeste 0 -- -- 100
2017-10-07 00:00:00 11.6 4 Sudoeste 6 Sudoeste 0 -- -- 99
2017-10-06 23:00:00 12.2 4 Sudoeste 6 Sudoeste 0 -- -- 98
2017-10-06 22:00:00 12.8 6 Oeste 8 Oeste 0 -- -- 96
2017-10-06 21:00:00 14.3 3 Sudeste 6 Sudeste 0 -- -- 92
2017-10-06 20:00:00 15.2 2 Nordeste 6 Norte 0 -- -- 91
2017-10-06 19:00:00 16.2 5 Norte 13 Norte 0 -- -- 88
2017-10-06 18:00:00 16.9 7 Norte 14 Nordeste 0 -- -- 86
2017-10-06 17:00:00 17.2 7 Nordeste 15 Nordeste 0 -- -- 87
2017-10-06 16:00:00 17.7 5 Norte 14 Nordeste 0 -- -- 91
2017-10-06 15:00:00 17.3 6 Nordeste 19 Norte 0 -- -- 95
2017-10-06 14:00:00 18.5 12 Nordeste 21 Nordeste 0.2 -- -- 91
2017-10-06 13:00:00 17.2 10 Nordeste 20 Norte 1 -- -- 98
2017-10-06 12:00:00 17.3 4 Sudeste 9 Sur 0 -- -- 96
2017-10-06 11:00:00 16.6 3 Sudeste 6 Sudoeste 0 -- -- 96
2017-10-06 10:00:00 16.2 4 Oeste 8 Sudoeste 0 -- -- 98
2017-10-06 09:00:00 15.5 3 Sur 6 Sudeste 0 -- -- 100
2017-10-06 08:00:00 15.4 3 Oeste 6 Sudoeste 0 -- -- 99
2017-10-06 07:00:00 15.4 6 Sudoeste 7 Sudoeste 0 -- -- 98
2017-10-06 06:00:00 15.6 3 Sudoeste 6 Sudoeste 0 -- -- 97
2017-10-06 05:00:00 15.8 3 Sur 5 Sur 0 -- -- 98
2017-10-06 04:00:00 16.1 0 Calma 3 Este 0 -- -- 97
2017-10-06 03:00:00 16.6 2 Este 5 Este 0 -- -- 94
2017-10-06 02:00:00 16.8 0 Calma 6 Nordeste 0 -- -- 93
2017-10-06 01:00:00 17 3 Nordeste 5 Nordeste 0 -- -- 94
2017-10-06 00:00:00 17.4 2 Nordeste 6 Nordeste 0 -- -- 91
2017-10-05 23:00:00 17.6 2 Este 6 Nordeste 0 -- -- 93
2017-10-05 22:00:00 17.7 4 Norte 7 Nordeste 0 -- -- 94
2017-10-05 21:00:00 18.1 3 Nordeste 8 Nordeste 0 -- -- 92
2017-10-05 20:00:00 18.5 4 Nordeste 11 Nordeste 0 -- -- 91
2017-10-05 19:00:00 19.3 4 Nordeste 16 Este 0 -- -- 89
2017-10-05 18:00:00 19.6 6 Nordeste 21 Nordeste 0 -- -- 88
2017-10-05 17:00:00 20.3 9 Nordeste 28 Nordeste 0 -- -- 87
2017-10-05 16:00:00 22.2 14 Nordeste 27 Nordeste 0 -- -- 83
2017-10-05 15:00:00 22.6 8 Nordeste 14 Nordeste 0 -- -- 82
2017-10-05 14:00:00 21.5 7 Norte 12 Nordeste 0 -- -- 88
2017-10-05 13:00:00 20.6 7 Nordeste 13 Nordeste 0 -- -- 93
2017-10-05 12:00:00 20.5 2 Sudoeste 8 Sudoeste 0 -- -- 93
2017-10-05 11:00:00 19.4 5 Sudoeste 8 Sudoeste 0 -- -- 99
2017-10-05 10:00:00 18.6 0 Calma 6 Sur 0 -- -- 100
2017-10-05 09:00:00 18.4 4 Sudoeste 6 Sudoeste 0 -- -- 100
2017-10-05 08:00:00 18.3 4 Sudoeste 10 Sudoeste 0 -- -- 100
2017-10-05 07:00:00 18.3 5 Sudoeste 9 Sudoeste 0 -- -- 100
2017-10-05 06:00:00 18.3 6 Sudoeste 9 Sudoeste 0 -- -- 100
2017-10-05 05:00:00 18.2 5 Sudoeste 10 Oeste 0 -- -- 100
2017-10-05 04:00:00 18.1 5 Sudoeste 8 Sudoeste 0 -- -- 100
2017-10-05 03:00:00 18 3 Oeste 6 Sudoeste 0 -- -- 100
2017-10-05 02:00:00 17.9 4 Sudoeste 9 Sudoeste 0 -- -- 100
2017-10-05 01:00:00 17.5 3 Sudoeste 6 Sudoeste 0 -- -- 100
2017-10-05 00:00:00 17.2 5 Sudoeste 7 Sudoeste 0 -- -- 100
2017-10-04 23:00:00 17.3 4 Oeste 7 Sudoeste 0 -- -- 100
2017-10-04 22:00:00 17.3 0 Calma 6 Sudoeste 0 -- -- 99
2017-10-04 21:00:00 18.1 0 Calma 16 Nordeste 0 -- -- 98
2017-10-04 20:00:00 18.5 10 Norte 17 Norte 0 -- -- 96
2017-10-04 19:00:00 19.2 11 Norte 23 Norte 0 -- -- 92
2017-10-04 18:00:00 21.4 13 Norte 26 Norte 0 -- -- 86
2017-10-04 17:00:00 21.5 11 Nordeste 23 Este 0 -- -- 88
2017-10-04 16:00:00 22 13 Este 28 Este 0 -- -- 85
2017-10-04 15:00:00 21.4 18 Este 27 Este 0 -- -- 86
2017-10-04 14:00:00 21.8 15 Este 23 Este 0 -- -- 86
2017-10-04 13:00:00 22 9 Nordeste 16 Norte 0 -- -- 86
2017-10-04 12:00:00 19.2 3 Norte 5 Sudoeste 0 -- -- 100
2017-10-04 11:00:00 17.2 3 Sudoeste 5 Sudoeste 0 -- -- 100
2017-10-04 10:00:00 16 4 Sur 8 Sudoeste 0 -- -- 100
2017-10-04 09:00:00 15.9 0 Calma 6 Oeste 0 -- -- 100
2017-10-04 08:00:00 15.3 4 Sudoeste 8 Sudoeste 0.2 -- -- 100
2017-10-04 07:00:00 16.1 2 Sudoeste 7 Sudoeste 0 -- -- 100
2017-10-04 06:00:00 16.4 6 Sudoeste 13 Sudoeste 0 -- -- 100
2017-10-04 05:00:00 17.4 0 Calma 6 Norte 0 -- -- 99
2017-10-04 04:00:00 17.9 4 Norte 9 Norte 0 -- -- 100
2017-10-04 03:00:00 17.6 5 Norte 8 Oeste 0 -- -- 100
2017-10-04 02:00:00 17.9 2 Oeste 9 Nordeste 0 -- -- 100
2017-10-04 01:00:00 17.7 0 Calma 4 Sudeste 0 -- -- 100
2017-10-04 00:00:00 17.7 3 Sudeste 6 Nordeste 0 -- -- 100
2017-10-03 23:00:00 17.8 4 Nordeste 8 Nordeste 0 -- -- 99
2017-10-03 22:00:00 18.5 3 Norte 8 Nordeste 0 -- -- 97
2017-10-03 21:00:00 18.9 3 Nordeste 10 Este 0 -- -- 97
2017-10-03 20:00:00 19.3 5 Este 14 Este 0 -- -- 95
2017-10-03 19:00:00 20.3 8 Nordeste 18 Norte 0 -- -- 92
2017-10-03 18:00:00 22.3 12 Norte 20 Norte 0 -- -- 86
2017-10-03 17:00:00 23.1 11 Nordeste 20 Norte 0 -- -- 82
2017-10-03 16:00:00 21.6 14 Norte 21 Norte 0 -- -- 87
2017-10-03 15:00:00 22.1 8 Nordeste 20 Nordeste 0 -- -- 86
2017-10-03 14:00:00 22 12 Nordeste 19 Nordeste 0 -- -- 89
2017-10-03 13:00:00 20.7 3 Norte 6 Norte 0 -- -- 94
2017-10-03 12:00:00 20.2 5 Sudoeste 9 Oeste 0 -- -- 99
2017-10-03 11:00:00 18.9 3 Sudoeste 7 Sudoeste 0 -- -- 100
2017-10-03 10:00:00 18 2 Sur 8 Sudoeste 0 -- -- 100
2017-10-03 09:00:00 17.5 5 Oeste 7 Oeste 0 -- -- 100
2017-10-03 08:00:00 17.3 0 Calma 3 Norte 0 -- -- 100
2017-10-03 07:00:00 17.3 2 Sudoeste 7 Sudoeste 0 -- -- 100
2017-10-03 06:00:00 17.4 2 Sur 9 Sudoeste 0 -- -- 100
2017-10-03 05:00:00 17.6 5 Sudoeste 10 Sudoeste 0.2 -- -- 100
2017-10-03 04:00:00 17.9 0 Calma 5 Este 0 -- -- 100
2017-10-03 03:00:00 18 0 Calma 4 Este 0 -- -- 100
2017-10-03 02:00:00 18.2 0 Calma 4 Sur 0 -- -- 100
2017-10-03 01:00:00 18.2 0 Calma 5 Sur 0 -- -- 100
2017-10-03 00:00:00 18.4 2 Sur 5 Sudeste 0 -- -- 100
2017-10-02 23:00:00 18.3 0 Calma 2 Sudoeste 0 -- -- 100
2017-10-02 22:00:00 18.4 0 Calma 4 Este 0 -- -- 100
2017-10-02 21:00:00 18.8 3 Nordeste 9 Norte 0 -- -- 98
2017-10-02 20:00:00 19.6 5 Norte 11 Nordeste 0 -- -- 96
2017-10-02 19:00:00 20.3 5 Norte 9 Norte 0 -- -- 95
2017-10-02 18:00:00 20.4 6 Norte 14 Norte 0 -- -- 94
2017-10-02 17:00:00 21.7 6 Oeste 11 Oeste 0 -- -- 91
2017-10-02 16:00:00 21.3 3 Noroeste 9 Norte 0 -- -- 92
2017-10-02 15:00:00 21.2 5 Noroeste 15 Noroeste 0 -- -- 92
2017-10-02 14:00:00 20.2 4 Sudeste 8 Sur 0 -- -- 99
2017-10-02 13:00:00 19.5 3 Sur 9 Sudoeste 0 -- -- 100
2017-10-02 12:00:00 18.9 4 Sudoeste 10 Sudoeste 0 -- -- 100
2017-10-02 11:00:00 18.6 6 Sudoeste 14 Sudoeste 0 -- -- 100
2017-10-02 10:00:00 18.1 6 Sudoeste 14 Oeste 0.8 -- -- 100
2017-10-02 09:00:00 17.9 9 Sudoeste 15 Oeste 0 -- -- 100
2017-10-02 08:00:00 18.1 4 Oeste 19 Oeste 0 -- -- 98
2017-10-02 07:00:00 18 6 Sudoeste 17 Oeste 0 -- -- 99
2017-10-02 06:00:00 17.8 4 Sudoeste 17 Sudoeste 0 -- -- 100
2017-10-02 05:00:00 17.4 6 Sudoeste 14 Sudoeste 0 -- -- 100
2017-10-02 04:00:00 17.4 9 Sudoeste 13 Oeste 0.4 -- -- 100
2017-10-02 03:00:00 17.6 6 Sudoeste 10 Sudoeste 0.2 -- -- 100
2017-10-02 02:00:00 17.9 4 Sudoeste 10 Oeste 0 -- -- 99
2017-10-02 01:00:00 17.9 6 Oeste 16 Oeste 0 -- -- 99
2017-10-02 00:00:00 18 9 Sudoeste 13 Oeste 0 -- -- 99
2017-10-01 23:00:00 17.8 0 Calma 10 Oeste 0 -- -- 99
2017-10-01 22:00:00 18 8 Oeste 17 Oeste 0 -- -- 98
2017-10-01 21:00:00 17.9 4 Sudoeste 10 Oeste 0 -- -- 100
2017-10-01 20:00:00 18.3 4 Sur 13 Norte 0 -- -- 99
2017-10-01 19:00:00 18.5 2 Norte 9 Oeste 0.2 -- -- 99
2017-10-01 18:00:00 18.6 3 Oeste 10 Noroeste 0.2 -- -- 99
2017-10-01 17:00:00 18.3 2 Sudoeste 15 Noroeste 0.4 -- -- 99
2017-10-01 16:00:00 17.9 4 Oeste 18 Sudoeste 0 -- -- 99
2017-10-01 15:00:00 17.9 10 Sudoeste 16 Sudoeste 0 -- -- 98
2017-10-01 14:00:00 17.7 10 Sudoeste 15 Sudoeste 0 -- -- 98
2017-10-01 13:00:00 17.3 9 Sudoeste 15 Sudoeste 0 -- -- 98
2017-10-01 12:00:00 17.2 9 Sudoeste 15 Sudoeste 0 -- -- 99
2017-10-01 11:00:00 15.9 10 Sudoeste 15 Sudoeste 0.2 -- -- 100
2017-10-01 10:00:00 15.2 6 Sudoeste 12 Sudoeste 0 -- -- 100
2017-10-01 09:00:00 14.6 6 Sudoeste 14 Sudoeste 0 -- -- 100
2017-10-01 08:00:00 14.3 7 Sudoeste 10 Oeste 0.2 -- -- 100
2017-10-01 07:00:00 13.9 8 Oeste 14 Sudoeste 0 -- -- 100
2017-10-01 06:00:00 13.4 6 Sudoeste 10 Oeste 0 -- -- 100
2017-10-01 05:00:00 13.1 5 Oeste 10 Sudoeste 0 -- -- 100
2017-10-01 04:00:00 12.7 5 Sudoeste 9 Sudoeste 0 -- -- 100
2017-10-01 03:00:00 12.9 4 Sudoeste 8 Sudoeste 0 -- -- 100
2017-10-01 02:00:00 13 5 Sudoeste 7 Sudoeste 0 -- -- 100
2017-10-01 01:00:00 13.2 3 Sudoeste 7 Sudoeste 0 -- -- 100
2017-10-01 00:00:00 13.6 4 Sudoeste 8 Sudoeste 0 -- -- 99
2017-09-30 23:00:00 14.1 4 Sudoeste 8 Sudoeste 0 -- -- 98
2017-09-30 22:00:00 14.5 2 Sur 4 Sudeste 0 -- -- 96
2017-09-30 21:00:00 15.1 3 Norte 4 Este 0 -- -- 96
2017-09-30 20:00:00 15.9 2 Norte 10 Norte 0 -- -- 93
2017-09-30 19:00:00 16.6 4 Norte 9 Norte 0 -- -- 95
2017-09-30 18:00:00 16.4 6 Norte 17 Norte 0 -- -- 96
2017-09-30 17:00:00 16.9 8 Nordeste 18 Este 0 -- -- 93
2017-09-30 16:00:00 16.6 9 Este 17 Este 0 -- -- 94
2017-09-30 15:00:00 17.4 5 Este 14 Este 0 -- -- 93
2017-09-30 14:00:00 17.2 5 Norte 14 Norte 0.4 -- -- 100
2017-09-30 13:00:00 16.4 9 Nordeste 14 Nordeste 0.2 -- -- 100
2017-09-30 12:00:00 16.4 6 Norte 13 Norte 0.2 -- -- 100
2017-09-30 11:00:00 15.9 6 Norte 18 Norte 0.4 -- -- 100
2017-09-30 10:00:00 15.9 11 Norte 16 Norte 0.8 -- -- 100
2017-09-30 09:00:00 16.5 4 Nordeste 14 Norte 0.6 -- -- 100
2017-09-30 08:00:00 16.6 10 Norte 27 Norte 2.8 -- -- 100
2017-09-30 07:00:00 17.2 5 Nordeste 15 Norte 0.6 -- -- 99
2017-09-30 06:00:00 17.2 0 Calma 7 Sudoeste 0 -- -- 98
2017-09-30 05:00:00 17.2 4 Sur 6 Sudoeste 0 -- -- 98
2017-09-30 04:00:00 17.3 0 Calma 4 Oeste 0 -- -- 97
2017-09-30 03:00:00 17.5 3 Oeste 4 Sudoeste 0 -- -- 96
2017-09-30 02:00:00 17.4 3 Sudoeste 5 Sudoeste 0 -- -- 97
2017-09-30 01:00:00 17.4 2 Norte 4 Norte 0 -- -- 97
2017-09-30 00:00:00 17.5 2 Sudoeste 7 Sur 0 -- -- 95
2017-09-29 23:00:00 17.9 4 Sudoeste 8 Sudoeste 0 -- -- 93
2017-09-29 22:00:00 18.4 3 Oeste 6 Sudoeste 0 -- -- 91
2017-09-29 21:00:00 18.8 0 Calma 6 Norte 0 -- -- 87
2017-09-29 20:00:00 19.4 3 Nordeste 9 Norte 0 -- -- 83
2017-09-29 19:00:00 20.9 5 Norte 17 Nordeste 0 -- -- 78
2017-09-29 18:00:00 23.2 7 Nordeste 19 Nordeste 0 -- -- 69
2017-09-29 17:00:00 23.8 9 Nordeste 30 Nordeste 0 -- -- 66
2017-09-29 16:00:00 25.2 15 Nordeste 30 Nordeste 0 -- -- 57
2017-09-29 15:00:00 25.7 12 Norte 26 Nordeste 0 -- -- 64
2017-09-29 14:00:00 25.8 8 Nordeste 17 Norte 0 -- -- 68
2017-09-29 13:00:00 25.6 7 Nordeste 15 Nordeste 0 -- -- 69
2017-09-29 12:00:00 23.6 5 Sur 10 Sudoeste 0 -- -- 76
2017-09-29 11:00:00 20.2 6 Sudoeste 15 Oeste 0 -- -- 89
2017-09-29 10:00:00 17.5 7 Sudoeste 13 Sudoeste 0 -- -- 100
2017-09-29 09:00:00 15.4 5 Sudoeste 13 Sudoeste 0 -- -- 100
2017-09-29 08:00:00 14.4 5 Sudoeste 10 Sudoeste 0 -- -- 100
2017-09-29 07:00:00 13.5 5 Sudoeste 9 Sudoeste 0 -- -- 99
2017-09-29 06:00:00 13.9 3 Sudoeste 9 Sudoeste 0 -- -- 99
2017-09-29 05:00:00 14.5 4 Sudoeste 9 Sudoeste 0 -- -- 99
2017-09-29 04:00:00 14.8 4 Sudoeste 9 Sudoeste 0 -- -- 98
2017-09-29 03:00:00 15.7 5 Sudoeste 10 Sudoeste 0 -- -- 97
2017-09-29 02:00:00 16.6 7 Sudoeste 11 Sudoeste 0 -- -- 95
2017-09-29 01:00:00 17.5 5 Sudoeste 15 Sudoeste 0 -- -- 92
2017-09-29 00:00:00 18.1 7 Sudoeste 12 Sudoeste 0 -- -- 96
2017-09-28 23:00:00 18.4 6 Sudoeste 11 Sudoeste 0 -- -- 94
2017-09-28 22:00:00 19.3 4 Sudoeste 10 Oeste 0 -- -- 91
2017-09-28 21:00:00 20.6 3 Norte 9 Nordeste 0 -- -- 84
2017-09-28 20:00:00 22.1 6 Nordeste 15 Norte 0 -- -- 79
2017-09-28 19:00:00 24.6 9 Nordeste 16 Norte 0 -- -- 72
2017-09-28 18:00:00 26.8 6 Nordeste 17 Nordeste 0 -- -- 67
2017-09-28 17:00:00 26.6 10 Nordeste 18 Norte 0 -- -- 67
2017-09-28 16:00:00 27.3 13 Nordeste 22 Nordeste 0 -- -- 63
2017-09-28 15:00:00 29.8 10 Sudoeste 18 Sudoeste 0 -- -- 48
2017-09-28 14:00:00 28.9 12 Sudoeste 25 Sudoeste 0 -- -- 52
2017-09-28 13:00:00 26.9 14 Oeste 24 Oeste 0 -- -- 58
2017-09-28 12:00:00 23.6 5 Sur 9 Sur 0 -- -- 76
2017-09-28 11:00:00 19 0 Calma 5 Oeste 0 -- -- 91
2017-09-28 10:00:00 15.7 3 Oeste 9 Sudoeste 0 -- -- 95
2017-09-28 09:00:00 12.6 7 Sudoeste 10 Oeste 0 -- -- 100
2017-09-28 08:00:00 11.7 6 Sudoeste 11 Sudoeste 0 -- -- 100
2017-09-28 07:00:00 11.8 5 Oeste 11 Sudoeste 0 -- -- 100
2017-09-28 06:00:00 12.1 9 Sudoeste 13 Sudoeste 0 -- -- 100
2017-09-28 05:00:00 12.2 3 Sur 12 Sudoeste 0 -- -- 99
2017-09-28 04:00:00 12.5 9 Oeste 12 Oeste 0 -- -- 99
2017-09-28 03:00:00 13.3 4 Sudoeste 8 Sudoeste 0 -- -- 98
2017-09-28 02:00:00 13.8 6 Sudoeste 12 Sudoeste 0 -- -- 98
2017-09-28 01:00:00 14.1 5 Sudoeste 11 Sudoeste 0 -- -- 97
2017-09-28 00:00:00 14.7 8 Sudoeste 11 Sudoeste 0 -- -- 97
2017-09-27 23:00:00 15.7 5 Sudoeste 9 Sudoeste 0 -- -- 94
2017-09-27 22:00:00 16.9 0 Calma 3 Nordeste 0 -- -- 92
2017-09-27 21:00:00 18 0 Calma 12 Norte 0 -- -- 92
2017-09-27 20:00:00 19 9 Nordeste 21 Norte 0 -- -- 88
2017-09-27 19:00:00 21.2 11 Nordeste 23 Norte 0 -- -- 75
2017-09-27 18:00:00 23.8 12 Norte 22 Nordeste 0 -- -- 68
2017-09-27 17:00:00 25.3 12 Norte 19 Norte 0 -- -- 63
2017-09-27 16:00:00 24.3 13 Norte 27 Norte 0 -- -- 65
2017-09-27 15:00:00 24.4 15 Norte 24 Norte 0 -- -- 67
2017-09-27 14:00:00 26.8 6 Oeste 22 Sudoeste 0 -- -- 53
2017-09-27 13:00:00 25.3 8 Sudoeste 18 Oeste 0 -- -- 53
2017-09-27 12:00:00 23.4 6 Sudoeste 13 Oeste 0 -- -- 63
2017-09-27 11:00:00 19.4 4 Sudoeste 7 Sudoeste 0 -- -- 85
2017-09-27 10:00:00 14.4 5 Sudoeste 15 Sudoeste 0 -- -- 100
2017-09-27 09:00:00 11.7 6 Sudoeste 10 Sudoeste 0 -- -- 100
2017-09-27 08:00:00 10.4 7 Sudoeste 13 Sudoeste 0.2 -- -- 100
2017-09-27 07:00:00 10.5 6 Sudoeste 9 Sudoeste 0 -- -- 100
2017-09-27 06:00:00 10.4 5 Sudoeste 9 Oeste 0 -- -- 100
2017-09-27 05:00:00 10.6 5 Sudoeste 9 Sudoeste 0 -- -- 100
2017-09-27 04:00:00 10.9 6 Sudoeste 9 Sudoeste 0 -- -- 100
2017-09-27 03:00:00 11.4 5 Sudoeste 9 Sudoeste 0 -- -- 100
2017-09-27 02:00:00 11.8 5 Sudoeste 9 Sudoeste 0 -- -- 100
2017-09-27 01:00:00 12.2 4 Sudoeste 6 Sudoeste 0 -- -- 100
2017-09-27 00:00:00 12.7 6 Oeste 8 Oeste 0 -- -- 99
2017-09-26 23:00:00 13.6 3 Sudoeste 6 Oeste 0 -- -- 96
2017-09-26 22:00:00 14.9 0 Calma 8 Nordeste 0 -- -- 94
2017-09-26 21:00:00 15.5 5 Norte 9 Nordeste 0 -- -- 91
2017-09-26 20:00:00 16.9 4 Nordeste 18 Este 0 -- -- 86
2017-09-26 19:00:00 18.6 10 Este 21 Sudeste 0 -- -- 79
2017-09-26 18:00:00 19.5 14 Este 24 Este 0 -- -- 77
2017-09-26 17:00:00 20.5 12 Este 23 Sudeste 0 -- -- 77
2017-09-26 16:00:00 20.7 14 Este 24 Este 0 -- -- 78
2017-09-26 15:00:00 21.2 11 Este 23 Sudeste 0 -- -- 78
2017-09-26 14:00:00 20.3 6 Este 23 Sudeste 0 -- -- 78
2017-09-26 13:00:00 20.5 7 Nordeste 14 Norte 0 -- -- 81
2017-09-26 12:00:00 19.4 4 Sudeste 10 Este 0 -- -- 84
2017-09-26 11:00:00 17.8 3 Sur 8 Sudeste 0 -- -- 98
2017-09-26 10:00:00 17.1 5 Sur 9 Sudoeste 0 -- -- 100
2017-09-26 09:00:00 15.1 5 Sudoeste 8 Sudoeste 0 -- -- 100
2017-09-26 08:00:00 15 4 Oeste 5 Oeste 0 -- -- 100
2017-09-26 07:00:00 14.8 4 Oeste 7 Sudoeste 0 -- -- 100
2017-09-26 06:00:00 14.8 3 Sudoeste 7 Sur 0.6 -- -- 100
2017-09-26 05:00:00 14.5 4 Oeste 6 Sudoeste 0 -- -- 100
2017-09-26 04:00:00 14.9 3 Sudoeste 4 Sudoeste 0.2 -- -- 100
2017-09-26 03:00:00 15 2 Sur 5 Sudoeste 0 -- -- 100
2017-09-26 02:00:00 15.2 2 Sudoeste 7 Sudoeste 0.2 -- -- 100
2017-09-26 01:00:00 15.5 3 Sudoeste 7 Sudoeste 0.4 -- -- 100
2017-09-26 00:00:00 15.6 4 Oeste 8 Sudoeste 0.8 -- -- 100
2017-09-25 23:00:00 15.5 5 Sudoeste 9 Sur 0 -- -- 100
2017-09-25 22:00:00 15.8 5 Sudoeste 10 Sudoeste 0 -- -- 100
2017-09-25 21:00:00 16 6 Sudoeste 9 Sudoeste 0 -- -- 99
2017-09-25 20:00:00 16.8 5 Oeste 11 Oeste 0 -- -- 98
2017-09-25 19:00:00 17.5 3 Sudoeste 13 Oeste 0.4 -- -- 99
2017-09-25 18:00:00 17.2 5 Sudoeste 11 Sudoeste 1.8 -- -- 99
2017-09-25 17:00:00 17.2 3 Nordeste 33 Nordeste 3.6 -- -- 96
2017-09-25 16:00:00 19.8 17 Noroeste 31 Norte 1 -- -- 86
2017-09-25 15:00:00 20.3 9 Norte 24 Noroeste 0 -- -- 77
2017-09-25 14:00:00 19.2 4 Sur 11 Sudeste 0 -- -- 87
2017-09-25 13:00:00 18.7 7 Norte 23 Noroeste 0 -- -- 85
2017-09-25 12:00:00 18.7 4 Sudoeste 15 Norte 0 -- -- 84
2017-09-25 11:00:00 18 11 Noroeste 19 Noroeste 0 -- -- 89
2017-09-25 10:00:00 16.8 5 Sudoeste 12 Oeste 0 -- -- 99
2017-09-25 09:00:00 15.5 6 Sudoeste 14 Sudoeste 0 -- -- 100
2017-09-25 08:00:00 15.5 8 Sudoeste 12 Oeste 0 -- -- 99
2017-09-25 07:00:00 15.9 6 Sur 13 Sudoeste 0 -- -- 99
2017-09-25 06:00:00 16.2 8 Sudoeste 13 Sudoeste 0 -- -- 99
2017-09-25 05:00:00 16.4 7 Oeste 10 Oeste 0 -- -- 98
2017-09-25 04:00:00 16.7 3 Sudeste 9 Oeste 0 -- -- 95
2017-09-25 03:00:00 17.6 5 Sur 16 Oeste 0.6 -- -- 92
2017-09-25 02:00:00 18.3 8 Sudoeste 21 Noroeste 0 -- -- 88
2017-09-25 01:00:00 18.4 6 Oeste 12 Oeste 0 -- -- 85
2017-09-25 00:00:00 18.5 4 Sur 6 Nordeste 0 -- -- 98
2017-09-24 23:00:00 18.7 2 Norte 4 Norte 0 -- -- 96
2017-09-24 22:00:00 18.8 2 Oeste 17 Norte 0 -- -- 97
2017-09-24 21:00:00 18.7 10 Norte 15 Norte 0 -- -- 95
2017-09-24 20:00:00 19.6 5 Nordeste 20 Norte 0 -- -- 91
2017-09-24 19:00:00 21.3 12 Nordeste 22 Norte 0 -- -- 84
2017-09-24 18:00:00 23.5 12 Nordeste 23 Norte 0 -- -- 79
2017-09-24 17:00:00 23.6 14 Nordeste 22 Norte 0 -- -- 77
2017-09-24 16:00:00 23.7 14 Nordeste 27 Norte 0 -- -- 77
2017-09-24 15:00:00 24.2 15 Nordeste 25 Norte 0 -- -- 75
2017-09-24 14:00:00 24.5 12 Nordeste 22 Nordeste 0 -- -- 74
2017-09-24 13:00:00 24 4 Nordeste 9 Nordeste 0 -- -- 71
2017-09-24 12:00:00 21.7 2 Norte 5 Noroeste 0 -- -- 78
2017-09-24 11:00:00 18.5 3 Oeste 6 Sudoeste 0 -- -- 84
2017-09-24 10:00:00 15.7 3 Oeste 8 Sudoeste 0 -- -- 96
2017-09-24 09:00:00 13 4 Sudoeste 8 Sudoeste 0 -- -- 100
2017-09-24 08:00:00 12.5 3 Sudoeste 9 Oeste 0 -- -- 100
2017-09-24 07:00:00 13 6 Sudoeste 9 Sudoeste 0 -- -- 99
2017-09-24 06:00:00 13.3 4 Sudoeste 10 Sudoeste 0 -- -- 99
2017-09-24 05:00:00 13.9 5 Oeste 9 Sudoeste 0 -- -- 98
2017-09-24 04:00:00 14.5 4 Sudoeste 12 Sudoeste 0 -- -- 97
2017-09-24 03:00:00 15.3 8 Sudoeste 12 Sudoeste 0 -- -- 96
2017-09-24 02:00:00 16 7 Sudoeste 13 Sudoeste 0 -- -- 94
2017-09-24 01:00:00 16.7 6 Sudoeste 13 Sudoeste 0 -- -- 93
2017-09-24 00:00:00 17.4 9 Sudoeste 15 Sudoeste 0 -- -- 91
2017-09-23 23:00:00 17.7 8 Sudoeste 15 Sudoeste 0 -- -- 87
2017-09-23 22:00:00 17.8 5 Sur 10 Oeste 0 -- -- 93
2017-09-23 21:00:00 20.2 2 Sudoeste 6 Nordeste 0 -- -- 85
2017-09-23 20:00:00 21.2 4 Este 11 Nordeste 0 -- -- 82
2017-09-23 19:00:00 24.8 5 Nordeste 12 Nordeste 0 -- -- 72
2017-09-23 18:00:00 26.5 6 Nordeste 12 Nordeste 0 -- -- 66
2017-09-23 17:00:00 28.1 6 Nordeste 14 Noroeste 0 -- -- 60
2017-09-23 16:00:00 29 10 Sudoeste 19 Sudoeste 0 -- -- 49
2017-09-23 15:00:00 27.9 13 Oeste 31 Sudoeste 0 -- -- 54
2017-09-23 14:00:00 26.6 17 Oeste 31 Sudoeste 0 -- -- 56
2017-09-23 13:00:00 25.1 15 Oeste 27 Sudoeste 0.2 -- -- 62
2017-09-23 12:00:00 22.8 5 Sudoeste 17 Sudoeste 0 -- -- 73
2017-09-23 11:00:00 18.2 3 Sur 10 Sur 0 -- -- 100
2017-09-23 10:00:00 14.3 6 Sudoeste 10 Sur 0 -- -- 100
2017-09-23 09:00:00 12.6 4 Sudoeste 9 Sudoeste 0 -- -- 100
2017-09-23 08:00:00 11.6 5 Sudoeste 8 Oeste 0 -- -- 100
2017-09-23 07:00:00 12.1 4 Sudoeste 9 Sudoeste 0 -- -- 100
2017-09-23 06:00:00 12.4 4 Sudoeste 6 Sudoeste 0 -- -- 100
2017-09-23 05:00:00 13 4 Sudoeste 9 Sudoeste 0 -- -- 100
2017-09-23 04:00:00 13.3 6 Sudoeste 9 Sudoeste 0 -- -- 100
2017-09-23 03:00:00 13.8 4 Sudoeste 9 Sudoeste 0 -- -- 100
2017-09-23 02:00:00 14.3 5 Sudoeste 10 Sudoeste 0 -- -- 100
2017-09-23 01:00:00 15 6 Sudoeste 10 Sudoeste 0 -- -- 100
2017-09-23 00:00:00 15.2 2 Sudoeste 6 Oeste 0 -- -- 100